createdAt,value
2023-04-23T00:02:26.994Z,13.70
2023-04-23T00:07:31.030Z,13.70
2023-04-23T00:12:34.936Z,13.60
2023-04-23T00:17:39.531Z,13.50
2023-04-23T00:22:43.042Z,13.50
2023-04-23T00:27:46.258Z,13.60
2023-04-23T00:32:50.915Z,13.60
2023-04-23T00:37:54.212Z,13.70
2023-04-23T00:42:58.471Z,13.70
2023-04-23T00:48:04.154Z,13.70
2023-04-23T00:53:07.647Z,13.60
2023-04-23T00:58:11.127Z,13.60
2023-04-23T01:03:16.751Z,13.50
2023-04-23T01:08:20.460Z,13.60
2023-04-23T01:13:26.741Z,13.60
2023-04-23T01:18:31.490Z,13.60
2023-04-23T01:23:36.508Z,13.60
2023-04-23T01:28:40.620Z,13.60
2023-04-23T01:33:44.420Z,13.50
2023-04-23T01:38:49.105Z,13.50
2023-04-23T01:43:52.552Z,13.50
2023-04-23T01:48:56.127Z,13.60
2023-04-23T01:54:01.407Z,13.60
2023-04-23T01:59:04.765Z,13.70
2023-04-23T02:04:08.252Z,13.70
2023-04-23T02:09:13.111Z,13.30
2023-04-23T02:14:17.597Z,13.50
2023-04-23T02:19:21.028Z,13.40
2023-04-23T02:24:25.782Z,16.30
2023-04-23T02:29:29.453Z,13.30
2023-04-23T02:34:32.710Z,13.40
2023-04-23T02:39:39.358Z,13.30
2023-04-23T02:44:43.019Z,13.60
2023-04-23T02:49:46.553Z,13.40
2023-04-23T02:54:51.285Z,13.10
2023-04-23T02:59:54.801Z,12.90
2023-04-23T03:05:05.432Z,13.10
2023-04-23T03:10:10.864Z,13.20
2023-04-23T03:15:14.174Z,13.50
2023-04-23T03:20:18.229Z,13.20
2023-04-23T03:25:25.804Z,12.80
2023-04-23T03:30:30.194Z,12.90
2023-04-23T03:35:33.592Z,13.00
2023-04-23T03:40:45.140Z,13.00
2023-04-23T03:45:49.186Z,13.00
2023-04-23T03:50:52.959Z,12.90
2023-04-23T03:56:10.089Z,12.80
2023-04-23T04:01:23.792Z,12.80
2023-04-23T04:06:27.181Z,13.00
2023-04-23T04:11:33.549Z,13.10
2023-04-23T04:16:36.895Z,13.20
2023-04-23T04:21:40.190Z,13.20
2023-04-23T04:26:45.331Z,13.10
2023-04-23T04:31:49.094Z,13.10
2023-04-23T04:36:53.902Z,13.40
2023-04-23T04:41:59.975Z,13.10
2023-04-23T04:47:03.309Z,13.10
2023-04-23T04:52:06.686Z,13.00
2023-04-23T04:57:11.573Z,13.10
2023-04-23T05:02:15.037Z,13.00
2023-04-23T05:07:18.422Z,13.00
2023-04-23T05:12:23.198Z,13.00
2023-04-23T05:17:26.585Z,12.90
2023-04-23T05:22:30.528Z,13.10
2023-04-23T05:27:35.267Z,13.10
2023-04-23T05:32:39.689Z,13.00
2023-04-23T05:37:43.228Z,11.40
2023-04-23T05:42:47.876Z,13.20
2023-04-23T05:47:51.885Z,13.20
2023-04-23T05:52:55.826Z,13.30
2023-04-23T05:58:01.286Z,13.40
2023-04-23T06:03:04.996Z,13.40
2023-04-23T06:08:08.592Z,12.20
2023-04-23T06:13:13.564Z,13.20
2023-04-23T06:18:16.978Z,13.30
2023-04-23T06:23:20.357Z,13.20
2023-04-23T06:28:24.986Z,13.30
2023-04-23T06:33:48.338Z,13.20
2023-04-23T06:38:51.722Z,13.10
2023-04-23T06:43:57.087Z,13.10
2023-04-23T06:49:12.835Z,12.80
2023-04-23T06:54:16.216Z,12.60
2023-04-23T06:59:21.994Z,12.50
2023-04-23T07:04:29.832Z,12.40
2023-04-23T07:09:33.486Z,12.40
2023-04-23T07:14:38.236Z,12.40
2023-04-23T07:19:42.458Z,12.40
2023-04-23T07:24:45.908Z,12.40
2023-04-23T07:29:50.767Z,12.40
2023-04-23T07:34:54.081Z,12.20
2023-04-23T07:39:57.296Z,12.20
2023-04-23T07:45:02.068Z,12.20
2023-04-23T07:50:06.067Z,12.10
2023-04-23T07:55:10.798Z,12.10
2023-04-23T08:00:16.197Z,12.10
2023-04-23T08:05:19.536Z,12.20
2023-04-23T08:10:22.880Z,12.20
2023-04-23T08:15:27.584Z,12.30
2023-04-23T08:20:32.369Z,12.50
2023-04-23T08:25:35.837Z,12.60
2023-04-23T08:30:40.708Z,12.70
2023-04-23T08:35:43.989Z,12.70
2023-04-23T08:40:51.992Z,12.60
2023-04-23T08:45:57.378Z,12.60
2023-04-23T08:51:03.277Z,12.50
2023-04-23T08:56:07.978Z,12.60
2023-04-23T09:01:12.988Z,12.40
2023-04-23T09:06:16.280Z,12.30
2023-04-23T09:11:20.129Z,12.20
2023-04-23T09:16:24.968Z,12.50
2023-04-23T09:21:28.325Z,12.50
2023-04-23T09:26:31.669Z,12.50
2023-04-23T09:31:36.307Z,13.10
2023-04-23T09:36:39.698Z,13.10
2023-04-23T09:41:43.138Z,13.40
2023-04-23T09:46:47.796Z,14.20
2023-04-23T09:51:51.391Z,14.60
2023-04-23T09:56:57.153Z,15.10
2023-04-23T10:02:06.401Z,16.40
2023-04-23T10:07:19.627Z,15.00
2023-04-23T10:17:31.982Z,14.40
2023-04-23T10:22:36.786Z,14.40
2023-04-23T10:27:52.962Z,13.80
2023-04-23T10:33:01.604Z,14.10
2023-04-23T10:38:05.791Z,13.90
2023-04-23T10:43:09.124Z,14.40
2023-04-23T10:48:13.879Z,14.90
2023-04-23T10:53:21.488Z,14.80
2023-04-23T10:58:24.888Z,15.00
2023-04-23T11:03:44.589Z,14.70
2023-04-23T11:08:55.269Z,14.30
2023-04-23T11:13:59.679Z,14.30
2023-04-23T11:19:12.959Z,14.70
2023-04-23T11:24:17.245Z,15.60
2023-04-23T11:29:23.863Z,15.70
2023-04-23T11:34:31.478Z,15.20
2023-04-23T11:39:35.161Z,15.70
2023-04-23T11:44:41.230Z,15.50
2023-04-23T11:49:47.038Z,15.10
2023-04-23T11:54:50.458Z,18.60
2023-04-23T11:59:55.107Z,16.10
2023-04-23T12:04:59.803Z,18.00
2023-04-23T12:10:03.258Z,18.30
2023-04-23T12:15:08.447Z,20.40
2023-04-23T12:20:18.957Z,22.20
2023-04-23T12:25:24.350Z,22.10
2023-04-23T12:30:30.088Z,20.90
2023-04-23T12:35:41.505Z,22.90
2023-04-23T12:40:44.901Z,19.60
2023-04-23T12:45:48.164Z,19.50
2023-04-23T12:50:52.854Z,22.10
2023-04-23T12:55:56.139Z,25.40
2023-04-23T13:00:59.525Z,26.40
2023-04-23T13:06:04.357Z,26.10
2023-04-23T13:11:07.634Z,25.80
2023-04-23T13:16:11.770Z,24.10
2023-04-23T13:21:16.463Z,23.70
2023-04-23T13:26:20.191Z,22.10
2023-04-23T13:31:23.512Z,20.70
2023-04-23T13:36:28.252Z,20.30
2023-04-23T13:41:31.599Z,19.70
2023-04-23T13:46:35.039Z,21.30
2023-04-23T13:51:39.777Z,22.60
2023-04-23T13:56:43.738Z,22.90
2023-04-23T14:01:49.847Z,23.20
2023-04-23T14:06:54.995Z,22.10
2023-04-23T14:11:58.964Z,23.70
2023-04-23T14:17:02.598Z,24.70
2023-04-23T14:22:08.178Z,24.10
2023-04-23T14:27:11.589Z,27.00
2023-04-23T14:32:14.947Z,29.00
2023-04-23T14:37:21.083Z,27.80
2023-04-23T14:42:24.682Z,27.70
2023-04-23T14:47:28.524Z,28.20
2023-04-23T14:52:33.415Z,27.30
2023-04-23T14:57:36.673Z,25.80
2023-04-23T15:02:40.264Z,24.40
2023-04-23T15:07:45.493Z,26.70
2023-04-23T15:12:58.047Z,25.80
2023-04-23T15:18:01.675Z,26.80
2023-04-23T15:23:07.118Z,26.80
2023-04-23T15:28:11.325Z,25.40
2023-04-23T15:33:14.591Z,26.50
2023-04-23T15:38:20.201Z,28.20
2023-04-23T15:43:23.951Z,28.30
2023-04-23T15:48:27.589Z,28.10
2023-04-23T15:53:32.756Z,27.40
2023-04-23T15:58:36.635Z,27.20
2023-04-23T16:03:44.035Z,26.10
2023-04-23T16:08:55.268Z,27.10
2023-04-23T16:13:58.661Z,26.30
2023-04-23T16:19:03.440Z,26.40
2023-04-23T16:24:08.946Z,26.10
2023-04-23T16:34:20.539Z,25.00
2023-04-23T16:39:25.199Z,24.40
2023-04-23T16:44:28.652Z,22.90
2023-04-23T16:49:32.038Z,21.30
2023-04-23T16:54:37.136Z,19.90
2023-04-23T16:59:42.132Z,19.00
2023-04-23T17:04:46.362Z,18.60
2023-04-23T17:09:51.273Z,18.20
2023-04-23T17:14:54.949Z,17.90
2023-04-23T17:19:58.492Z,17.80
2023-04-23T17:25:03.178Z,17.60
2023-04-23T17:30:07.731Z,17.50
2023-04-23T17:35:11.309Z,17.10
2023-04-23T17:40:16.222Z,16.80
2023-04-23T17:45:20.129Z,16.60
2023-04-23T17:50:23.566Z,16.60
2023-04-23T17:55:28.555Z,16.40
2023-04-23T18:00:31.897Z,16.10
2023-04-23T18:05:35.275Z,16.10
2023-04-23T18:10:40.054Z,16.00
2023-04-23T18:15:45.686Z,15.80
2023-04-23T18:20:49.479Z,15.60
2023-04-23T18:25:54.219Z,15.30
2023-04-23T18:31:02.576Z,15.00
2023-04-23T18:36:11.547Z,15.20
2023-04-23T18:41:17.879Z,15.10
2023-04-23T18:46:23.120Z,15.00
2023-04-23T18:51:31.346Z,14.90
2023-04-23T18:56:36.292Z,14.70
2023-04-23T19:01:40.324Z,14.80
2023-04-23T19:06:44.574Z,14.80
2023-04-23T19:11:49.555Z,14.70
2023-04-23T19:16:53.943Z,14.60
2023-04-23T19:21:57.287Z,14.30
2023-04-23T19:27:02.187Z,14.50
2023-04-23T19:32:05.821Z,14.40
2023-04-23T19:37:09.070Z,13.90
2023-04-23T19:42:14.013Z,13.80
2023-04-23T19:47:17.648Z,13.90
2023-04-23T19:52:24.510Z,14.10
2023-04-23T19:57:29.479Z,13.70
2023-04-23T20:02:32.813Z,13.80
2023-04-23T20:07:36.261Z,14.00
2023-04-23T20:12:40.996Z,14.00
2023-04-23T20:17:44.436Z,14.00
2023-04-23T20:22:47.832Z,14.10
2023-04-23T20:27:52.857Z,13.90
2023-04-23T20:32:57.785Z,13.60
2023-04-23T20:38:01.108Z,15.80
2023-04-23T20:43:05.856Z,13.70
2023-04-23T20:48:10.004Z,13.70
2023-04-23T20:53:14.343Z,13.60
2023-04-23T20:58:19.250Z,13.10
2023-04-23T21:03:22.695Z,13.00
2023-04-23T21:08:26.126Z,13.00
2023-04-23T21:13:31.150Z,12.90
2023-04-23T21:18:34.695Z,13.00
2023-04-23T21:23:38.195Z,13.00
2023-04-23T21:28:42.969Z,12.90
2023-04-23T21:33:46.270Z,13.10
2023-04-23T21:38:49.812Z,12.90
2023-04-23T21:43:54.619Z,12.60
2023-04-23T21:48:58.341Z,12.80
2023-04-23T21:54:01.827Z,12.70
2023-04-23T21:59:06.638Z,12.70
2023-04-23T22:04:10.347Z,12.50
2023-04-23T22:09:14.439Z,12.00
2023-04-23T22:14:19.394Z,11.90
2023-04-23T22:19:22.872Z,11.90
2023-04-23T22:24:26.804Z,11.90
2023-04-23T22:29:31.743Z,11.80
2023-04-23T22:34:35.014Z,11.70
2023-04-23T22:39:38.339Z,11.70
2023-04-23T22:44:43.163Z,11.50
2023-04-23T22:49:46.809Z,11.50
2023-04-23T22:54:50.147Z,11.40
2023-04-23T22:59:55.064Z,11.30
2023-04-23T23:04:58.394Z,11.30
2023-04-23T23:10:01.736Z,11.30
2023-04-23T23:15:07.766Z,11.20
2023-04-23T23:20:12.462Z,11.20
2023-04-23T23:25:16.235Z,11.20
2023-04-23T23:30:21.143Z,11.20
2023-04-23T23:35:24.518Z,11.20
2023-04-23T23:40:27.891Z,11.20
2023-04-23T23:45:32.654Z,11.20
2023-04-23T23:50:35.896Z,11.10
2023-04-23T23:55:40.752Z,11.10
